sensor_id;sensor_type;location;lat;lon;timestamp;pressure;altitude;pressure_sealevel;temperature;humidity
77975;BME280;67164;51.202;0.278;2023-03-01T00:00:44;102896.29;;;24.40;31.56
77975;BME280;67164;51.202;0.278;2023-03-01T00:03:09;102899.24;;;24.43;31.53
77975;BME280;67164;51.202;0.278;2023-03-01T00:05:35;102900.87;;;24.38;31.49
77975;BME280;67164;51.202;0.278;2023-03-01T00:08:01;102902.24;;;24.35;31.36
77975;BME280;67164;51.202;0.278;2023-03-01T00:10:28;102901.00;;;24.36;31.29
77975;BME280;67164;51.202;0.278;2023-03-01T00:12:58;102905.17;;;24.31;31.23
77975;BME280;67164;51.202;0.278;2023-03-01T00:15:18;102911.01;;;24.47;31.28
77975;BME280;67164;51.202;0.278;2023-03-01T00:18:03;102913.22;;;24.12;31.36
77975;BME280;67164;51.202;0.278;2023-03-01T00:20:11;102908.21;;;24.09;31.31
77975;BME280;67164;51.202;0.278;2023-03-01T00:22:36;102910.98;;;24.05;31.25
77975;BME280;67164;51.202;0.278;2023-03-01T00:25:07;102911.18;;;24.01;31.23
77975;BME280;67164;51.202;0.278;2023-03-01T00:27:28;102907.87;;;24.18;31.25
77975;BME280;67164;51.202;0.278;2023-03-01T00:29:59;102910.70;;;24.36;31.21
77975;BME280;67164;51.202;0.278;2023-03-01T00:32:19;102910.84;;;23.83;31.19
77975;BME280;67164;51.202;0.278;2023-03-01T00:34:50;102905.27;;;24.26;31.13
77975;BME280;67164;51.202;0.278;2023-03-01T00:37:11;102905.53;;;23.74;31.16
77975;BME280;67164;51.202;0.278;2023-03-01T00:39:36;102905.42;;;24.15;31.17
77975;BME280;67164;51.202;0.278;2023-03-01T00:42:07;102903.45;;;24.10;31.18
77975;BME280;67164;51.202;0.278;2023-03-01T00:44:28;102903.42;;;23.79;31.15
77975;BME280;67164;51.202;0.278;2023-03-01T00:46:54;102898.68;;;23.74;31.19
77975;BME280;67164;51.202;0.278;2023-03-01T00:49:19;102903.72;;;23.96;31.20
77975;BME280;67164;51.202;0.278;2023-03-01T00:51:50;102895.33;;;23.67;31.18
77975;BME280;67164;51.202;0.278;2023-03-01T00:54:10;102894.43;;;23.89;31.22
77975;BME280;67164;51.202;0.278;2023-03-01T00:56:36;102890.67;;;23.36;31.17
77975;BME280;67164;51.202;0.278;2023-03-01T00:59:02;102893.48;;;23.54;31.21
77975;BME280;67164;51.202;0.278;2023-03-01T01:01:29;102891.91;;;23.52;31.24
77975;BME280;67164;51.202;0.278;2023-03-01T01:03:56;102891.23;;;23.76;31.24
77975;BME280;67164;51.202;0.278;2023-03-01T01:06:21;102889.39;;;23.76;31.20
77975;BME280;67164;51.202;0.278;2023-03-01T01:08:51;102886.29;;;23.81;31.20
77975;BME280;67164;51.202;0.278;2023-03-01T01:11:11;102883.57;;;23.81;31.15
77975;BME280;67164;51.202;0.278;2023-03-01T01:13:37;102881.56;;;23.71;31.24
77975;BME280;67164;51.202;0.278;2023-03-01T01:16:02;102882.85;;;23.68;31.23
77975;BME280;67164;51.202;0.278;2023-03-01T01:18:27;102885.41;;;23.37;31.25
77975;BME280;67164;51.202;0.278;2023-03-01T01:20:54;102885.05;;;23.51;31.30
77975;BME280;67164;51.202;0.278;2023-03-01T01:23:19;102882.64;;;23.45;31.34
77975;BME280;67164;51.202;0.278;2023-03-01T01:25:45;102882.02;;;23.37;31.39
77975;BME280;67164;51.202;0.278;2023-03-01T01:28:10;102885.14;;;23.35;31.35
77975;BME280;67164;51.202;0.278;2023-03-01T01:30:35;102884.04;;;23.30;31.35
77975;BME280;67164;51.202;0.278;2023-03-01T01:33:01;102886.36;;;23.23;31.42
77975;BME280;67164;51.202;0.278;2023-03-01T01:35:28;102882.77;;;23.21;31.32
77975;BME280;67164;51.202;0.278;2023-03-01T01:37:52;102878.68;;;23.49;31.27
77975;BME280;67164;51.202;0.278;2023-03-01T01:40:17;102874.55;;;23.11;31.29
77975;BME280;67164;51.202;0.278;2023-03-01T01:42:42;102874.09;;;23.30;31.33
77975;BME280;67164;51.202;0.278;2023-03-01T01:45:27;102872.12;;;23.27;31.37
77975;BME280;67164;51.202;0.278;2023-03-01T01:47:34;102870.62;;;22.95;31.39
77975;BME280;67164;51.202;0.278;2023-03-01T01:49:59;102866.79;;;22.95;31.42
77975;BME280;67164;51.202;0.278;2023-03-01T01:52:29;102863.21;;;22.99;31.36
77975;BME280;67164;51.202;0.278;2023-03-01T01:54:53;102863.73;;;22.97;31.26
77975;BME280;67164;51.202;0.278;2023-03-01T01:57:19;102863.08;;;23.24;31.25
77975;BME280;67164;51.202;0.278;2023-03-01T01:59:43;102865.06;;;23.21;31.16
77975;BME280;67164;51.202;0.278;2023-03-01T02:02:07;102861.17;;;23.00;31.19
77975;BME280;67164;51.202;0.278;2023-03-01T02:04:32;102852.38;;;22.88;31.16
77975;BME280;67164;51.202;0.278;2023-03-01T02:07:01;102848.10;;;22.84;31.22
77975;BME280;67164;51.202;0.278;2023-03-01T02:09:24;102843.70;;;23.06;31.24
77975;BME280;67164;51.202;0.278;2023-03-01T02:11:48;102837.53;;;22.77;31.27
77975;BME280;67164;51.202;0.278;2023-03-01T02:14:12;102833.61;;;22.73;31.26
77975;BME280;67164;51.202;0.278;2023-03-01T02:16:38;102834.86;;;22.73;31.30
77975;BME280;67164;51.202;0.278;2023-03-01T02:19:05;102834.95;;;22.90;31.31
77975;BME280;67164;51.202;0.278;2023-03-01T02:21:37;102834.10;;;22.86;31.28
77975;BME280;67164;51.202;0.278;2023-03-01T02:23:55;102830.58;;;22.83;31.30
77975;BME280;67164;51.202;0.278;2023-03-01T02:26:25;102828.05;;;22.82;31.35
77975;BME280;67164;51.202;0.278;2023-03-01T02:28:46;102824.94;;;22.80;31.33
77975;BME280;67164;51.202;0.278;2023-03-01T02:31:16;102820.87;;;22.55;31.37
77975;BME280;67164;51.202;0.278;2023-03-01T02:33:37;102814.55;;;22.98;31.35
77975;BME280;67164;51.202;0.278;2023-03-01T02:36:02;102811.41;;;22.71;31.41
77975;BME280;67164;51.202;0.278;2023-03-01T02:38:27;102809.54;;;22.41;31.36
77975;BME280;67164;51.202;0.278;2023-03-01T02:40:52;102806.83;;;22.63;31.45
77975;BME280;67164;51.202;0.278;2023-03-01T02:43:17;102809.53;;;22.80;31.45
77975;BME280;67164;51.202;0.278;2023-03-01T02:45:48;102805.11;;;22.44;31.49
77975;BME280;67164;51.202;0.278;2023-03-01T02:48:07;102802.49;;;22.49;31.54
77975;BME280;67164;51.202;0.278;2023-03-01T02:50:46;102794.13;;;22.20;31.50
77975;BME280;67164;51.202;0.278;2023-03-01T02:53:01;102795.83;;;22.70;31.49
77975;BME280;67164;51.202;0.278;2023-03-01T02:55:24;102794.88;;;22.45;31.48
77975;BME280;67164;51.202;0.278;2023-03-01T02:57:50;102787.38;;;22.66;31.47
77975;BME280;67164;51.202;0.278;2023-03-01T03:00:19;102785.23;;;22.37;31.46
77975;BME280;67164;51.202;0.278;2023-03-01T03:02:42;102781.79;;;22.30;31.55
77975;BME280;67164;51.202;0.278;2023-03-01T03:05:10;102782.56;;;22.47;31.49
77975;BME280;67164;51.202;0.278;2023-03-01T03:07:34;102784.04;;;22.48;31.53
77975;BME280;67164;51.202;0.278;2023-03-01T03:09:59;102784.32;;;22.26;31.52
77975;BME280;67164;51.202;0.278;2023-03-01T03:12:25;102786.82;;;22.21;31.53
77975;BME280;67164;51.202;0.278;2023-03-01T03:14:51;102783.68;;;22.42;31.50
77975;BME280;67164;51.202;0.278;2023-03-01T03:17:17;102783.75;;;22.41;31.52
77975;BME280;67164;51.202;0.278;2023-03-01T03:19:42;102781.53;;;22.34;31.55
77975;BME280;67164;51.202;0.278;2023-03-01T03:22:08;102776.48;;;22.21;31.63
77975;BME280;67164;51.202;0.278;2023-03-01T03:24:34;102773.44;;;22.23;31.60
77975;BME280;67164;51.202;0.278;2023-03-01T03:27:00;102774.34;;;22.21;31.52
77975;BME280;67164;51.202;0.278;2023-03-01T03:29:25;102772.17;;;21.90;31.66
77975;BME280;67164;51.202;0.278;2023-03-01T03:31:51;102776.41;;;21.89;31.68
77975;BME280;67164;51.202;0.278;2023-03-01T03:34:17;102772.73;;;21.87;31.63
77975;BME280;67164;51.202;0.278;2023-03-01T03:36:43;102771.41;;;22.13;31.63
77975;BME280;67164;51.202;0.278;2023-03-01T03:39:09;102771.19;;;22.08;31.59
77975;BME280;67164;51.202;0.278;2023-03-01T03:41:34;102767.25;;;22.03;31.69
77975;BME280;67164;51.202;0.278;2023-03-01T03:44:00;102766.10;;;21.77;31.65
77975;BME280;67164;51.202;0.278;2023-03-01T03:46:26;102764.53;;;21.95;31.74
77975;BME280;67164;51.202;0.278;2023-03-01T03:48:51;102758.11;;;21.92;31.78
77975;BME280;67164;51.202;0.278;2023-03-01T03:51:18;102760.43;;;21.93;31.75
77975;BME280;67164;51.202;0.278;2023-03-01T03:53:44;102760.64;;;21.85;31.78
77975;BME280;67164;51.202;0.278;2023-03-01T03:56:09;102760.86;;;21.65;31.76
77975;BME280;67164;51.202;0.278;2023-03-01T03:58:35;102759.47;;;21.83;31.75
77975;BME280;67164;51.202;0.278;2023-03-01T04:01:00;102757.69;;;21.78;31.81
77975;BME280;67164;51.202;0.278;2023-03-01T04:03:27;102749.63;;;21.77;31.85
77975;BME280;67164;51.202;0.278;2023-03-01T04:05:52;102745.74;;;21.56;31.74
77975;BME280;67164;51.202;0.278;2023-03-01T04:08:18;102739.70;;;22.01;31.86
77975;BME280;67164;51.202;0.278;2023-03-01T04:10:46;102735.19;;;22.01;31.79
77975;BME280;67164;51.202;0.278;2023-03-01T04:13:11;102736.15;;;21.81;31.73
77975;BME280;67164;51.202;0.278;2023-03-01T04:15:35;102734.82;;;21.51;31.81
77975;BME280;67164;51.202;0.278;2023-03-01T04:18:01;102731.15;;;21.68;31.86
77975;BME280;67164;51.202;0.278;2023-03-01T04:20:29;102725.74;;;21.74;31.69
77975;BME280;67164;51.202;0.278;2023-03-01T04:22:58;102722.24;;;21.76;31.77
77975;BME280;67164;51.202;0.278;2023-03-01T04:25:18;102720.57;;;21.69;31.83
77975;BME280;67164;51.202;0.278;2023-03-01T04:27:44;102716.03;;;21.69;31.76
77975;BME280;67164;51.202;0.278;2023-03-01T04:30:11;102712.78;;;21.94;31.66
77975;BME280;67164;51.202;0.278;2023-03-01T04:32:35;102716.33;;;21.71;31.74
77975;BME280;67164;51.202;0.278;2023-03-01T04:35:01;102713.57;;;21.68;31.74
77975;BME280;67164;51.202;0.278;2023-03-01T04:37:27;102712.24;;;21.71;31.76
77975;BME280;67164;51.202;0.278;2023-03-01T04:39:53;102706.35;;;21.64;31.78
77975;BME280;67164;51.202;0.278;2023-03-01T04:42:19;102705.78;;;21.77;31.80
77975;BME280;67164;51.202;0.278;2023-03-01T04:44:45;102706.98;;;21.76;31.90
77975;BME280;67164;51.202;0.278;2023-03-01T04:47:11;102704.72;;;21.42;31.99
77975;BME280;67164;51.202;0.278;2023-03-01T04:49:36;102700.09;;;21.65;31.94
77975;BME280;67164;51.202;0.278;2023-03-01T04:52:03;102698.77;;;21.39;31.99
77975;BME280;67164;51.202;0.278;2023-03-01T04:54:28;102699.31;;;21.61;31.98
77975;BME280;67164;51.202;0.278;2023-03-01T04:56:54;102701.56;;;21.82;31.94
77975;BME280;67164;51.202;0.278;2023-03-01T04:59:20;102700.28;;;21.52;31.97
77975;BME280;67164;51.202;0.278;2023-03-01T05:01:45;102694.52;;;21.50;32.02
77975;BME280;67164;51.202;0.278;2023-03-01T05:04:11;102694.30;;;21.75;32.03
77975;BME280;67164;51.202;0.278;2023-03-01T05:06:37;102688.59;;;21.53;31.97
77975;BME280;67164;51.202;0.278;2023-03-01T05:09:03;102691.66;;;21.72;32.01
77975;BME280;67164;51.202;0.278;2023-03-01T05:11:29;102690.63;;;21.64;32.10
77975;BME280;67164;51.202;0.278;2023-03-01T05:13:55;102691.10;;;21.68;32.04
77975;BME280;67164;51.202;0.278;2023-03-01T05:16:20;102693.82;;;21.63;32.07
77975;BME280;67164;51.202;0.278;2023-03-01T05:18:46;102690.64;;;21.46;32.02
77975;BME280;67164;51.202;0.278;2023-03-01T05:21:13;102691.12;;;21.31;32.09
77975;BME280;67164;51.202;0.278;2023-03-01T05:23:38;102692.11;;;21.29;32.09
77975;BME280;67164;51.202;0.278;2023-03-01T05:26:05;102692.26;;;21.58;32.06
77975;BME280;67164;51.202;0.278;2023-03-01T05:28:30;102693.51;;;21.48;32.11
77975;BME280;67164;51.202;0.278;2023-03-01T05:30:56;102691.94;;;21.50;32.19
77975;BME280;67164;51.202;0.278;2023-03-01T05:33:21;102693.64;;;21.52;32.13
77975;BME280;67164;51.202;0.278;2023-03-01T05:35:47;102694.07;;;21.45;32.19
77975;BME280;67164;51.202;0.278;2023-03-01T05:38:13;102695.39;;;20.99;32.11
77975;BME280;67164;51.202;0.278;2023-03-01T05:40:39;102694.17;;;21.23;32.14
77975;BME280;67164;51.202;0.278;2023-03-01T05:43:04;102696.85;;;21.03;32.06
77975;BME280;67164;51.202;0.278;2023-03-01T05:45:30;102696.14;;;21.01;32.12
77975;BME280;67164;51.202;0.278;2023-03-01T05:47:56;102695.09;;;20.92;32.14
77975;BME280;67164;51.202;0.278;2023-03-01T05:50:24;102697.95;;;21.16;32.19
77975;BME280;67164;51.202;0.278;2023-03-01T05:52:49;102697.16;;;21.40;32.07
77975;BME280;67164;51.202;0.278;2023-03-01T05:55:14;102697.31;;;21.10;32.21
77975;BME280;67164;51.202;0.278;2023-03-01T05:57:39;102694.21;;;21.31;32.23
77975;BME280;67164;51.202;0.278;2023-03-01T06:00:06;102689.84;;;21.28;32.24
77975;BME280;67164;51.202;0.278;2023-03-01T06:02:31;102685.08;;;20.97;32.31
77975;BME280;67164;51.202;0.278;2023-03-01T06:04:57;102686.15;;;21.18;32.27
77975;BME280;67164;51.202;0.278;2023-03-01T06:07:23;102686.15;;;21.17;32.26
77975;BME280;67164;51.202;0.278;2023-03-01T06:09:48;102689.70;;;21.14;32.30
77975;BME280;67164;51.202;0.278;2023-03-01T06:12:14;102689.19;;;20.85;32.33
77975;BME280;67164;51.202;0.278;2023-03-01T06:14:40;102691.72;;;21.14;32.29
77975;BME280;67164;51.202;0.278;2023-03-01T06:17:05;102689.56;;;21.09;32.35
77975;BME280;67164;51.202;0.278;2023-03-01T06:19:31;102689.59;;;21.10;32.38
77975;BME280;67164;51.202;0.278;2023-03-01T06:21:57;102687.44;;;20.88;32.33
77975;BME280;67164;51.202;0.278;2023-03-01T06:24:23;102689.76;;;21.09;32.29
77975;BME280;67164;51.202;0.278;2023-03-01T06:26:49;102686.19;;;21.11;32.28
77975;BME280;67164;51.202;0.278;2023-03-01T06:29:14;102681.86;;;21.15;32.26
77975;BME280;67164;51.202;0.278;2023-03-01T06:31:40;102683.58;;;21.07;32.33
77975;BME280;67164;51.202;0.278;2023-03-01T06:34:06;102685.03;;;21.02;32.38
77975;BME280;67164;51.202;0.278;2023-03-01T06:36:32;102683.49;;;20.90;32.53
77975;BME280;67164;51.202;0.278;2023-03-01T06:38:58;102690.26;;;20.72;32.42
77975;BME280;67164;51.202;0.278;2023-03-01T06:41:24;102697.93;;;20.72;32.45
77975;BME280;67164;51.202;0.278;2023-03-01T06:43:49;102699.82;;;20.97;32.38
77975;BME280;67164;51.202;0.278;2023-03-01T06:46:15;102701.12;;;21.19;32.42
77975;BME280;67164;51.202;0.278;2023-03-01T06:48:41;102698.67;;;20.72;32.42
77975;BME280;67164;51.202;0.278;2023-03-01T06:51:07;102700.90;;;20.90;32.42
77975;BME280;67164;51.202;0.278;2023-03-01T06:53:33;102701.19;;;20.88;32.39
77975;BME280;67164;51.202;0.278;2023-03-01T06:55:59;102699.37;;;20.87;32.49
77975;BME280;67164;51.202;0.278;2023-03-01T06:58:24;102692.13;;;20.93;32.39
77975;BME280;67164;51.202;0.278;2023-03-01T07:00:50;102702.39;;;20.91;32.39
77975;BME280;67164;51.202;0.278;2023-03-01T07:03:16;102707.06;;;20.84;32.43
77975;BME280;67164;51.202;0.278;2023-03-01T07:05:42;102706.28;;;20.85;32.43
77975;BME280;67164;51.202;0.278;2023-03-01T07:08:08;102704.68;;;20.51;32.53
77975;BME280;67164;51.202;0.278;2023-03-01T07:10:34;102706.54;;;20.70;32.56
77975;BME280;67164;51.202;0.278;2023-03-01T07:13:00;102708.07;;;20.72;32.57
77975;BME280;67164;51.202;0.278;2023-03-01T07:15:26;102704.16;;;20.69;32.64
77975;BME280;67164;51.202;0.278;2023-03-01T07:17:51;102701.48;;;21.10;32.63
77975;BME280;67164;51.202;0.278;2023-03-01T07:20:18;102695.12;;;20.60;32.65
77975;BME280;67164;51.202;0.278;2023-03-01T07:22:43;102695.19;;;21.04;32.66
77975;BME280;67164;51.202;0.278;2023-03-01T07:25:09;102691.89;;;20.63;32.61
77975;BME280;67164;51.202;0.278;2023-03-01T07:27:34;102681.72;;;20.71;32.50
77975;BME280;67164;51.202;0.278;2023-03-01T07:30:00;102680.38;;;20.72;32.47
77975;BME280;67164;51.202;0.278;2023-03-01T07:32:26;102684.73;;;20.78;32.44
77975;BME280;67164;51.202;0.278;2023-03-01T07:34:52;102678.70;;;20.74;32.43
77975;BME280;67164;51.202;0.278;2023-03-01T07:37:18;102676.17;;;20.50;32.57
77975;BME280;67164;51.202;0.278;2023-03-01T07:39:44;102679.54;;;20.64;32.55
77975;BME280;67164;51.202;0.278;2023-03-01T07:42:09;102681.61;;;21.01;32.75
77975;BME280;67164;51.202;0.278;2023-03-01T07:44:40;102674.95;;;20.79;32.82
77975;BME280;67164;51.202;0.278;2023-03-01T07:47:02;102679.76;;;20.81;32.76
77975;BME280;67164;51.202;0.278;2023-03-01T07:49:27;102685.36;;;20.77;32.69
77975;BME280;67164;51.202;0.278;2023-03-01T07:51:53;102685.67;;;21.19;32.69
77975;BME280;67164;51.202;0.278;2023-03-01T07:54:19;102685.90;;;20.68;32.71
77975;BME280;67164;51.202;0.278;2023-03-01T07:56:44;102685.09;;;20.61;32.73
77975;BME280;67164;51.202;0.278;2023-03-01T07:59:10;102688.53;;;20.56;32.78
77975;BME280;67164;51.202;0.278;2023-03-01T08:01:36;102692.48;;;20.55;32.82
77975;BME280;67164;51.202;0.278;2023-03-01T08:04:02;102693.27;;;20.56;32.80
77975;BME280;67164;51.202;0.278;2023-03-01T08:06:28;102694.60;;;20.28;32.80
77975;BME280;67164;51.202;0.278;2023-03-01T08:08:54;102693.69;;;20.75;32.80
77975;BME280;67164;51.202;0.278;2023-03-01T08:11:19;102695.52;;;20.52;32.80
77975;BME280;67164;51.202;0.278;2023-03-01T08:13:47;102698.50;;;20.53;32.77
77975;BME280;67164;51.202;0.278;2023-03-01T08:16:13;102696.12;;;20.52;32.79
77975;BME280;67164;51.202;0.278;2023-03-01T08:18:37;102696.82;;;20.53;32.78
77975;BME280;67164;51.202;0.278;2023-03-01T08:21:03;102699.76;;;20.52;32.77
77975;BME280;67164;51.202;0.278;2023-03-01T08:23:29;102698.59;;;20.56;32.77
77975;BME280;67164;51.202;0.278;2023-03-01T08:25:55;102699.62;;;20.71;32.83
77975;BME280;67164;51.202;0.278;2023-03-01T08:28:20;102697.57;;;20.73;32.81
77975;BME280;67164;51.202;0.278;2023-03-01T08:30:46;102695.32;;;20.91;32.84
77975;BME280;67164;51.202;0.278;2023-03-01T08:33:12;102692.15;;;20.82;32.77
77975;BME280;67164;51.202;0.278;2023-03-01T08:35:38;102689.20;;;20.79;32.68
77975;BME280;67164;51.202;0.278;2023-03-01T08:38:04;102688.87;;;20.85;32.95
77975;BME280;67164;51.202;0.278;2023-03-01T08:40:29;102691.86;;;20.78;33.04
77975;BME280;67164;51.202;0.278;2023-03-01T08:42:55;102695.63;;;20.19;33.37
77975;BME280;67164;51.202;0.278;2023-03-01T08:45:22;102694.09;;;20.37;33.45
77975;BME280;67164;51.202;0.278;2023-03-01T08:47:47;102691.85;;;20.21;33.73
77975;BME280;67164;51.202;0.278;2023-03-01T08:50:13;102690.82;;;20.05;34.00
77975;BME280;67164;51.202;0.278;2023-03-01T08:52:39;102693.19;;;20.02;34.07
77975;BME280;67164;51.202;0.278;2023-03-01T08:55:06;102688.82;;;20.17;33.95
77975;BME280;67164;51.202;0.278;2023-03-01T08:57:30;102691.78;;;20.20;33.96
77975;BME280;67164;51.202;0.278;2023-03-01T08:59:56;102689.50;;;19.36;34.34
77975;BME280;67164;51.202;0.278;2023-03-01T09:02:22;102687.42;;;19.98;34.22
77975;BME280;67164;51.202;0.278;2023-03-01T09:04:48;102687.36;;;20.27;33.85
77975;BME280;67164;51.202;0.278;2023-03-01T09:07:14;102680.18;;;20.74;33.48
77975;BME280;67164;51.202;0.278;2023-03-01T09:09:40;102667.30;;;20.81;33.49
77975;BME280;67164;51.202;0.278;2023-03-01T09:12:06;102668.76;;;20.51;33.51
77975;BME280;67164;51.202;0.278;2023-03-01T09:14:32;102667.56;;;20.84;33.63
77975;BME280;67164;51.202;0.278;2023-03-01T09:16:57;102666.87;;;20.61;33.44
77975;BME280;67164;51.202;0.278;2023-03-01T09:19:23;102662.56;;;20.81;33.47
77975;BME280;67164;51.202;0.278;2023-03-01T09:21:48;102660.89;;;20.75;33.67
77975;BME280;67164;51.202;0.278;2023-03-01T09:24:15;102658.43;;;20.23;34.17
77975;BME280;67164;51.202;0.278;2023-03-01T09:26:40;102657.32;;;20.27;35.88
77975;BME280;67164;51.202;0.278;2023-03-01T09:29:06;102659.18;;;20.06;36.69
77975;BME280;67164;51.202;0.278;2023-03-01T09:31:32;102653.56;;;19.92;36.88
77975;BME280;67164;51.202;0.278;2023-03-01T09:33:58;102650.12;;;19.80;36.84
77975;BME280;67164;51.202;0.278;2023-03-01T09:36:24;102642.89;;;20.26;36.50
77975;BME280;67164;51.202;0.278;2023-03-01T09:38:49;102643.20;;;20.43;36.55
77975;BME280;67164;51.202;0.278;2023-03-01T09:41:28;102645.89;;;20.63;36.83
77975;BME280;67164;51.202;0.278;2023-03-01T09:43:44;102642.41;;;20.70;36.65
77975;BME280;67164;51.202;0.278;2023-03-01T09:46:10;102635.88;;;20.74;36.46
77975;BME280;67164;51.202;0.278;2023-03-01T09:48:38;102633.84;;;20.77;36.45
77975;BME280;67164;51.202;0.278;2023-03-01T09:50:58;102629.55;;;20.75;36.46
77975;BME280;67164;51.202;0.278;2023-03-01T09:53:26;102628.37;;;21.10;36.32
77975;BME280;67164;51.202;0.278;2023-03-01T09:55:54;102626.86;;;20.93;36.68
77975;BME280;67164;51.202;0.278;2023-03-01T10:00:42;102622.98;;;21.15;36.56
77975;BME280;67164;51.202;0.278;2023-03-01T10:03:14;102621.62;;;20.68;36.53
77975;BME280;67164;51.202;0.278;2023-03-01T10:05:36;102616.73;;;21.22;36.26
77975;BME280;67164;51.202;0.278;2023-03-01T10:08:02;102610.72;;;21.17;36.06
77975;BME280;67164;51.202;0.278;2023-03-01T10:10:27;102609.70;;;21.64;35.81
77975;BME280;67164;51.202;0.278;2023-03-01T10:12:47;102604.37;;;21.41;35.74
77975;BME280;67164;51.202;0.278;2023-03-01T10:15:15;102608.09;;;21.76;35.68
77975;BME280;67164;51.202;0.278;2023-03-01T10:17:43;102612.31;;;21.60;35.77
77975;BME280;67164;51.202;0.278;2023-03-01T10:20:17;102608.47;;;21.42;35.97
77975;BME280;67164;51.202;0.278;2023-03-01T10:22:31;102607.94;;;21.69;35.67
77975;BME280;67164;51.202;0.278;2023-03-01T10:24:58;102604.04;;;21.78;35.58
77975;BME280;67164;51.202;0.278;2023-03-01T10:27:24;102608.22;;;21.90;35.51
77975;BME280;67164;51.202;0.278;2023-03-01T10:29:53;102604.50;;;21.79;35.44
77975;BME280;67164;51.202;0.278;2023-03-01T10:32:12;102602.46;;;21.86;35.42
77975;BME280;67164;51.202;0.278;2023-03-01T10:34:38;102599.38;;;21.99;35.35
77975;BME280;67164;51.202;0.278;2023-03-01T10:37:09;102601.46;;;21.92;35.24
77975;BME280;67164;51.202;0.278;2023-03-01T10:39:29;102600.39;;;21.95;35.22
77975;BME280;67164;51.202;0.278;2023-03-01T10:41:58;102597.86;;;21.77;35.56
77975;BME280;67164;51.202;0.278;2023-03-01T10:44:40;102595.33;;;21.90;35.59
77975;BME280;67164;51.202;0.278;2023-03-01T10:46:58;102592.34;;;21.94;35.59
77975;BME280;67164;51.202;0.278;2023-03-01T10:49:15;102587.66;;;21.79;35.54
77975;BME280;67164;51.202;0.278;2023-03-01T10:51:40;102581.81;;;21.78;35.40
77975;BME280;67164;51.202;0.278;2023-03-01T10:54:05;102586.58;;;21.88;35.22
77975;BME280;67164;51.202;0.278;2023-03-01T10:58:59;102572.85;;;22.03;34.36
77975;BME280;67164;51.202;0.278;2023-03-01T11:01:26;102570.70;;;21.70;34.70
77975;BME280;67164;51.202;0.278;2023-03-01T11:06:20;102566.02;;;21.92;35.19
77975;BME280;67164;51.202;0.278;2023-03-01T11:08:43;102568.01;;;22.01;35.19
77975;BME280;67164;51.202;0.278;2023-03-01T11:13:31;102569.80;;;22.07;35.17
77975;BME280;67164;51.202;0.278;2023-03-01T11:16:01;102571.83;;;21.85;35.29
77975;BME280;67164;51.202;0.278;2023-03-01T11:18:30;102569.21;;;22.20;35.26
77975;BME280;67164;51.202;0.278;2023-03-01T11:20:49;102568.18;;;21.90;35.49
77975;BME280;67164;51.202;0.278;2023-03-01T11:23:15;102567.23;;;22.04;35.45
77975;BME280;67164;51.202;0.278;2023-03-01T11:25:43;102554.49;;;22.50;35.39
77975;BME280;67164;51.202;0.278;2023-03-01T11:28:07;102549.39;;;22.38;35.36
77975;BME280;67164;51.202;0.278;2023-03-01T11:30:36;102546.06;;;22.49;35.36
77975;BME280;67164;51.202;0.278;2023-03-01T11:33:05;102540.79;;;22.45;35.65
77975;BME280;67164;51.202;0.278;2023-03-01T11:35:25;102536.22;;;22.51;35.64
77975;BME280;67164;51.202;0.278;2023-03-01T11:37:59;102532.91;;;22.44;35.35
77975;BME280;67164;51.202;0.278;2023-03-01T11:40:17;102528.27;;;22.47;35.31
77975;BME280;67164;51.202;0.278;2023-03-01T11:42:50;102518.71;;;22.62;35.30
77975;BME280;67164;51.202;0.278;2023-03-01T11:45:10;102517.31;;;22.57;35.63
77975;BME280;67164;51.202;0.278;2023-03-01T11:47:42;102514.54;;;22.60;35.81
77975;BME280;67164;51.202;0.278;2023-03-01T11:50:06;102511.20;;;22.69;35.69
77975;BME280;67164;51.202;0.278;2023-03-01T11:52:32;102508.38;;;22.87;35.59
77975;BME280;67164;51.202;0.278;2023-03-01T11:54:59;102503.62;;;22.63;35.41
77975;BME280;67164;51.202;0.278;2023-03-01T11:57:26;102501.44;;;22.48;35.05
77975;BME280;67164;51.202;0.278;2023-03-01T11:59:52;102505.92;;;22.48;35.07
77975;BME280;67164;51.202;0.278;2023-03-01T12:02:23;102500.66;;;22.55;34.93
77975;BME280;67164;51.202;0.278;2023-03-01T12:07:00;102493.95;;;22.93;34.47
77975;BME280;67164;51.202;0.278;2023-03-01T12:09:35;102487.37;;;23.07;34.24
77975;BME280;67164;51.202;0.278;2023-03-01T12:12:02;102480.89;;;23.13;34.19
77975;BME280;67164;51.202;0.278;2023-03-01T12:14:32;102476.83;;;23.09;33.92
77975;BME280;67164;51.202;0.278;2023-03-01T12:19:16;102465.44;;;23.36;33.48
77975;BME280;67164;51.202;0.278;2023-03-01T12:21:42;102467.98;;;23.57;33.49
77975;BME280;67164;51.202;0.278;2023-03-01T12:24:13;102468.36;;;23.02;33.51
77975;BME280;67164;51.202;0.278;2023-03-01T12:26:29;102461.93;;;23.31;33.44
77975;BME280;67164;51.202;0.278;2023-03-01T12:29:07;102456.62;;;23.50;33.44
77975;BME280;67164;51.202;0.278;2023-03-01T12:33:49;102460.28;;;23.71;33.05
77975;BME280;67164;51.202;0.278;2023-03-01T12:36:22;102462.35;;;23.55;32.91
77975;BME280;67164;51.202;0.278;2023-03-01T12:38:39;102458.95;;;23.60;32.81
77975;BME280;67164;51.202;0.278;2023-03-01T12:41:19;102455.47;;;23.89;32.72
77975;BME280;67164;51.202;0.278;2023-03-01T12:43:36;102448.67;;;23.62;32.76
77975;BME280;67164;51.202;0.278;2023-03-01T12:46:03;102446.84;;;23.48;32.66
77975;BME280;67164;51.202;0.278;2023-03-01T12:48:25;102444.18;;;23.78;32.54
77975;BME280;67164;51.202;0.278;2023-03-01T12:50:46;102443.03;;;23.87;32.35
77975;BME280;67164;51.202;0.278;2023-03-01T12:53:17;102436.22;;;23.66;32.33
77975;BME280;67164;51.202;0.278;2023-03-01T12:55:37;102430.43;;;23.79;32.20
77975;BME280;67164;51.202;0.278;2023-03-01T12:58:07;102438.52;;;24.01;32.00